Time;durP1;ratioP1;P1;durP2;ratioP2;P2;SDS_P1;SDS_P2;PMS_P1;PMS_P2;Temp;Humidity;BMP_temperature;BMP_pressure;BME280_temperature;BME280_humidity;BME280_pressure;Samples;Min_cycle;Max_cycle;Signal;HPM_P1;HPM_P2
2023/09/23 00:01:38;;;;;;;0.35;0.20;;;12.50;99.90;;;;;;4972130;28;20042;-65
2023/09/23 00:04:04;;;;;;;0.82;0.47;;;12.50;99.90;;;;;;4972087;28;20050;-65
2023/09/23 00:06:30;;;;;;;1.23;0.40;;;12.50;99.90;;;;;;4955517;28;20050;-65
2023/09/23 00:09:00;;;;;;;1.08;0.43;;;12.50;99.90;;;;;;4971935;28;20042;-65
2023/09/23 00:11:25;;;;;;;0.35;0.28;;;12.60;99.90;;;;;;4989560;28;20038;-65
2023/09/23 00:13:51;;;;;;;0.47;0.20;;;12.60;99.90;;;;;;4971121;28;20065;-65
2023/09/23 00:16:17;;;;;;;1.15;0.35;;;12.60;99.90;;;;;;4987933;28;20046;-65
2023/09/23 00:18:43;;;;;;;0.30;0.20;;;12.60;99.90;;;;;;4970674;28;20045;-65
2023/09/23 00:21:09;;;;;;;1.83;0.38;;;12.60;99.90;;;;;;4971173;28;20066;-65
2023/09/23 00:23:35;;;;;;;0.77;0.47;;;12.60;99.90;;;;;;4971620;28;20073;-65
2023/09/23 00:26:02;;;;;;;1.38;0.90;;;12.60;99.90;;;;;;4968213;28;20051;-65
2023/09/23 00:28:30;;;;;;;1.23;0.68;;;12.60;99.90;;;;;;4968062;28;20115;-65
2023/09/23 00:31:05;;;;;;;1.30;0.30;;;12.60;99.90;;;;;;4971032;28;20042;-65
2023/09/23 00:33:32;;;;;;;0.75;0.40;;;12.60;99.90;;;;;;4971524;28;20053;-65
2023/09/23 00:35:58;;;;;;;0.65;0.30;;;12.60;99.90;;;;;;4988344;28;20463;-65
2023/09/23 00:38:24;;;;;;;0.60;0.40;;;12.50;99.90;;;;;;4971233;28;20053;-65
2023/09/23 00:40:52;;;;;;;0.32;0.20;;;12.50;99.90;;;;;;4970911;28;20360;-65
2023/09/23 00:43:18;;;;;;;1.10;0.40;;;12.50;99.90;;;;;;4971246;28;20049;-65
2023/09/23 00:45:48;;;;;;;0.57;0.40;;;12.50;99.90;;;;;;4988893;28;20046;-65
2023/09/23 00:48:23;;;;;;;1.60;0.60;;;12.60;99.90;;;;;;4970570;28;20053;-65
2023/09/23 00:50:50;;;;;;;0.75;0.50;;;12.60;99.90;;;;;;4971317;28;20034;-65
2023/09/23 00:53:17;;;;;;;0.55;0.38;;;12.50;99.90;;;;;;4970625;28;20050;-65
2023/09/23 00:55:52;;;;;;;1.05;0.40;;;12.50;99.90;;;;;;4988044;28;20429;-65
2023/09/23 00:58:21;;;;;;;0.20;0.20;;;12.50;99.90;;;;;;4971415;28;20039;-65
2023/09/23 01:00:48;;;;;;;;;;;12.50;99.90;;;;;;4989040;28;20087;-65
2023/09/23 01:03:18;;;;;;;1.02;0.55;;;12.50;99.90;;;;;;4970552;28;19921;-65
2023/09/23 01:05:45;;;;;;;1.38;0.60;;;12.50;99.90;;;;;;4971090;28;20048;-66
2023/09/23 01:08:11;;;;;;;2.00;0.88;;;12.40;99.90;;;;;;4971125;28;20412;-66
2023/09/23 01:10:38;;;;;;;1.10;0.70;;;12.40;99.90;;;;;;4970593;28;20081;-66
2023/09/23 01:13:07;;;;;;;1.77;0.85;;;12.40;99.90;;;;;;4954867;28;20506;-65
2023/09/23 01:15:40;;;;;;;1.65;0.80;;;12.30;99.90;;;;;;4988348;28;20042;-65
2023/09/23 01:18:18;;;;;;;2.65;0.77;;;12.30;99.90;;;;;;4988283;28;20053;-65
2023/09/23 01:20:49;;;;;;;2.30;1.05;;;12.30;99.90;;;;;;4970102;28;20054;-66
2023/09/23 01:23:15;;;;;;;3.80;1.23;;;12.20;99.90;;;;;;4987169;28;20046;-65
2023/09/23 01:25:41;;;;;;;1.20;0.80;;;12.20;99.90;;;;;;4988099;28;20483;-65
2023/09/23 01:28:13;;;;;;;1.75;0.88;;;12.20;99.90;;;;;;4970791;28;20050;-65
2023/09/23 01:30:46;;;;;;;4.72;0.68;;;12.20;99.90;;;;;;4969995;28;20082;-65
2023/09/23 01:33:15;;;;;;;3.58;0.93;;;12.10;99.90;;;;;;4970638;28;20042;-65
2023/09/23 01:35:41;;;;;;;1.77;1.00;;;12.10;99.90;;;;;;4970617;28;20175;-65
2023/09/23 01:38:08;;;;;;;1.42;1.08;;;12.00;99.90;;;;;;4970004;28;20054;-65
2023/09/23 01:40:36;;;;;;;1.65;0.82;;;12.00;99.90;;;;;;4988023;28;20123;-65
2023/09/23 01:43:02;;;;;;;1.80;0.75;;;11.90;99.90;;;;;;4972820;28;20125;-65
2023/09/23 01:45:28;;;;;;;2.42;0.98;;;11.90;99.90;;;;;;4973541;28;20722;-65
2023/09/23 01:47:56;;;;;;;0.38;0.17;;;11.90;99.90;;;;;;4991611;28;20046;-65
2023/09/23 01:50:29;;;;;;;1.80;0.57;;;11.80;99.90;;;;;;4974156;28;20053;-65
2023/09/23 01:52:59;;;;;;;1.38;0.75;;;11.80;99.90;;;;;;4973219;28;20053;-65
2023/09/23 01:55:25;;;;;;;0.85;0.50;;;11.70;99.90;;;;;;4973920;28;20055;-65
2023/09/23 01:57:51;;;;;;;0.73;0.52;;;11.70;99.90;;;;;;4973371;28;20073;-65
2023/09/23 02:00:26;;;;;;;0.75;0.57;;;11.70;99.90;;;;;;4973553;28;20475;-65
2023/09/23 02:02:55;;;;;;;0.85;0.60;;;11.60;99.90;;;;;;4973781;28;20050;-65
2023/09/23 02:05:28;;;;;;;2.03;0.88;;;11.60;99.90;;;;;;4978958;28;20042;-65
2023/09/23 02:07:54;;;;;;;1.63;0.82;;;11.50;99.90;;;;;;4971724;28;20053;-65
2023/09/23 02:10:23;;;;;;;1.90;0.93;;;11.50;99.90;;;;;;4954386;28;20039;-65
2023/09/23 02:12:49;;;;;;;2.15;1.27;;;11.50;99.90;;;;;;4953580;28;20072;-65
2023/09/23 02:15:17;;;;;;;2.50;0.95;;;11.50;99.90;;;;;;4970668;28;20047;-65
2023/09/23 02:17:43;;;;;;;1.98;0.88;;;11.50;99.90;;;;;;4988898;28;20053;-65
2023/09/23 02:20:21;;;;;;;1.73;0.98;;;11.50;99.90;;;;;;4972955;28;20123;-65
2023/09/23 02:22:53;;;;;;;4.28;1.77;;;11.50;99.90;;;;;;4972998;28;20046;-65
2023/09/23 02:25:20;;;;;;;2.08;1.20;;;11.50;99.90;;;;;;4972739;28;20112;-65
2023/09/23 02:27:46;;;;;;;2.05;1.00;;;11.60;99.90;;;;;;4972850;28;20053;-66
2023/09/23 02:30:13;;;;;;;3.42;1.40;;;11.60;99.90;;;;;;4973263;28;20057;-66
2023/09/23 02:32:43;;;;;;;1.27;0.88;;;11.60;99.90;;;;;;4972572;28;20049;-65
2023/09/23 02:35:11;;;;;;;3.97;1.13;;;11.60;99.90;;;;;;4973637;28;20042;-65
2023/09/23 02:37:41;;;;;;;2.05;1.27;;;11.60;99.90;;;;;;4972780;28;20065;-65
2023/09/23 02:40:14;;;;;;;1.75;1.13;;;11.60;99.90;;;;;;4972018;28;20122;-66
2023/09/23 02:42:41;;;;;;;1.52;0.93;;;11.60;99.90;;;;;;4973544;28;20050;-65
2023/09/23 02:45:12;;;;;;;2.15;1.10;;;11.60;99.90;;;;;;4957131;28;20046;-65
2023/09/23 02:47:39;;;;;;;2.22;1.35;;;11.50;99.90;;;;;;4972431;28;20042;-65
2023/09/23 02:50:09;;;;;;;2.45;1.33;;;11.50;99.90;;;;;;4972944;28;20057;-65
2023/09/23 02:52:41;;;;;;;1.92;0.98;;;11.40;99.90;;;;;;4956249;28;20053;-65
2023/09/23 02:55:12;;;;;;;4.30;1.70;;;11.40;99.90;;;;;;4956474;28;20103;-65
2023/09/23 02:57:41;;;;;;;2.08;1.20;;;11.30;99.90;;;;;;4972882;28;20054;-65
2023/09/23 03:00:17;;;;;;;2.17;1.33;;;11.30;99.90;;;;;;4972979;28;20042;-65
2023/09/23 03:02:50;;;;;;;2.83;1.40;;;11.20;99.90;;;;;;4972269;28;20115;-66
2023/09/23 03:05:16;;;;;;;4.32;1.38;;;11.20;99.90;;;;;;4972976;28;20039;-66
2023/09/23 03:07:43;;;;;;;3.30;1.05;;;11.20;99.90;;;;;;4956071;28;20510;-65
2023/09/23 03:10:13;;;;;;;3.25;1.27;;;11.10;99.90;;;;;;4972668;28;20507;-66
2023/09/23 03:12:50;;;;;;;1.63;0.95;;;11.10;99.90;;;;;;4980878;28;20076;-65
2023/09/23 03:15:19;;;;;;;3.20;1.17;;;11.10;99.90;;;;;;4952873;28;20066;-66
2023/09/23 03:17:50;;;;;;;1.70;1.20;;;11.00;99.90;;;;;;4970684;28;20096;-66
2023/09/23 03:20:25;;;;;;;2.70;1.25;;;11.10;99.90;;;;;;4969651;28;20053;-66
2023/09/23 03:22:52;;;;;;;5.72;1.20;;;11.10;99.90;;;;;;4952700;28;20043;-66
2023/09/23 03:25:19;;;;;;;1.90;1.50;;;11.10;99.90;;;;;;4968955;28;20491;-66
2023/09/23 03:27:47;;;;;;;3.17;1.55;;;11.10;99.90;;;;;;4969827;28;20586;-65
2023/09/23 03:30:13;;;;;;;6.00;1.52;;;11.10;99.90;;;;;;4952870;28;20047;-65
2023/09/23 03:32:39;;;;;;;2.45;1.10;;;11.10;99.90;;;;;;4953169;28;20080;-66
2023/09/23 03:35:09;;;;;;;3.40;1.17;;;11.10;99.90;;;;;;4972280;28;20081;-65
2023/09/23 03:37:36;;;;;;;2.65;1.70;;;11.10;99.90;;;;;;4972151;28;20115;-65
2023/09/23 03:40:07;;;;;;;1.73;1.20;;;11.10;99.90;;;;;;4972134;28;20038;-65
2023/09/23 03:42:34;;;;;;;2.25;1.17;;;11.00;99.90;;;;;;4972054;28;20502;-66
2023/09/23 03:45:00;;;;;;;3.47;2.20;;;11.00;99.90;;;;;;4956339;28;20049;-65
2023/09/23 03:47:26;;;;;;;4.40;1.42;;;11.00;99.90;;;;;;4972441;28;20046;-65
2023/09/23 03:49:51;;;;;;;5.10;1.80;;;11.00;99.90;;;;;;4971604;28;20046;-65
2023/09/23 03:52:17;;;;;;;5.72;1.23;;;11.00;99.90;;;;;;4971839;28;20043;-65
2023/09/23 03:54:43;;;;;;;2.60;1.48;;;11.00;99.90;;;;;;4971753;28;20122;-65
2023/09/23 03:57:09;;;;;;;3.22;1.90;;;10.90;99.90;;;;;;4989134;28;20125;-66
2023/09/23 03:59:36;;;;;;;3.33;1.27;;;10.90;99.90;;;;;;4956023;28;20141;-66
2023/09/23 04:02:01;;;;;;;3.17;1.67;;;10.90;99.90;;;;;;4971931;28;20042;-66
2023/09/23 04:04:27;;;;;;;3.13;2.15;;;10.90;99.90;;;;;;4970755;28;20469;-66
2023/09/23 04:06:53;;;;;;;2.35;1.25;;;10.80;99.90;;;;;;4971881;28;20494;-66
2023/09/23 04:09:18;;;;;;;3.25;1.38;;;10.80;99.90;;;;;;4989356;28;20042;-66
2023/09/23 04:11:46;;;;;;;2.53;1.10;;;10.80;99.90;;;;;;4971104;28;20125;-66
2023/09/23 04:14:12;;;;;;;2.47;1.15;;;10.70;99.90;;;;;;4955871;28;20075;-66
2023/09/23 04:16:37;;;;;;;3.92;1.65;;;10.70;99.90;;;;;;4972042;28;20034;-66
2023/09/23 04:19:03;;;;;;;2.15;1.35;;;10.70;99.90;;;;;;4971152;28;20410;-65
2023/09/23 04:21:30;;;;;;;4.07;1.52;;;10.70;99.90;;;;;;4971768;28;20095;-65
2023/09/23 04:23:57;;;;;;;2.05;1.35;;;10.60;99.90;;;;;;4972196;28;20091;-65
2023/09/23 04:26:24;;;;;;;1.98;1.13;;;10.60;99.90;;;;;;4970901;28;20070;-65
2023/09/23 04:28:52;;;;;;;2.97;1.70;;;10.60;99.90;;;;;;4971021;28;20050;-65
2023/09/23 04:31:19;;;;;;;1.88;1.17;;;10.60;99.90;;;;;;4970915;28;20482;-65
2023/09/23 04:33:47;;;;;;;4.13;1.50;;;10.60;99.90;;;;;;4971301;28;20053;-65
2023/09/23 04:36:13;;;;;;;2.92;1.42;;;10.60;99.90;;;;;;4971561;28;20476;-65
2023/09/23 04:38:39;;;;;;;2.40;1.02;;;10.60;99.90;;;;;;4970703;28;20062;-66
2023/09/23 04:41:05;;;;;;;2.72;1.33;;;10.60;99.90;;;;;;4971466;28;20121;-66
2023/09/23 04:43:31;;;;;;;2.03;1.02;;;10.60;99.90;;;;;;4971362;28;20171;-65
2023/09/23 04:45:57;;;;;;;2.70;1.58;;;10.50;99.90;;;;;;4971053;28;20045;-65
2023/09/23 04:48:26;;;;;;;4.53;1.40;;;10.60;99.90;;;;;;4955247;28;20470;-65
2023/09/23 04:50:55;;;;;;;2.20;1.50;;;10.60;99.90;;;;;;4955556;28;20048;-66
2023/09/23 04:53:21;;;;;;;2.13;1.05;;;10.60;99.90;;;;;;4970728;28;20050;-66
2023/09/23 04:55:47;;;;;;;2.15;1.05;;;10.70;99.90;;;;;;4988683;28;20485;-65
2023/09/23 04:58:13;;;;;;;3.63;1.50;;;10.60;99.90;;;;;;4971458;28;20053;-65
2023/09/23 05:00:39;;;;;;;1.83;1.02;;;10.60;99.90;;;;;;4970633;28;20418;-65
2023/09/23 05:03:05;;;;;;;2.60;1.48;;;10.60;99.90;;;;;;4988469;28;20536;-65
2023/09/23 05:05:31;;;;;;;1.88;1.15;;;10.60;99.90;;;;;;4988405;28;20121;-65
2023/09/23 05:07:59;;;;;;;2.30;1.27;;;10.60;99.90;;;;;;4970649;28;20035;-66
2023/09/23 05:10:26;;;;;;;2.40;0.90;;;10.60;99.90;;;;;;4971368;28;20149;-66
2023/09/23 05:12:55;;;;;;;3.80;1.73;;;10.50;99.90;;;;;;4955003;28;20048;-65
2023/09/23 05:15:22;;;;;;;2.67;1.10;;;10.50;99.90;;;;;;4970476;28;20034;-66
2023/09/23 05:17:49;;;;;;;3.13;1.55;;;10.50;99.90;;;;;;4988208;28;20447;-66
2023/09/23 05:20:25;;;;;;;2.90;1.17;;;10.40;99.90;;;;;;4971159;28;20052;-66
2023/09/23 05:22:51;;;;;;;2.40;1.63;;;10.40;99.90;;;;;;4970441;28;20047;-66
2023/09/23 05:25:17;;;;;;;2.63;1.42;;;10.40;99.90;;;;;;4970911;28;20058;-65
2023/09/23 05:27:43;;;;;;;3.25;1.55;;;10.50;99.90;;;;;;4970224;28;20039;-66
2023/09/23 05:30:10;;;;;;;4.38;1.50;;;10.60;99.90;;;;;;4970681;28;20049;-65
2023/09/23 05:32:37;;;;;;;2.55;1.55;;;10.60;99.90;;;;;;4953715;28;20729;-65
2023/09/23 05:35:10;;;;;;;4.40;1.80;;;10.70;99.90;;;;;;4969625;28;20662;-65
2023/09/23 05:37:37;;;;;;;4.30;2.00;;;10.70;99.90;;;;;;4970740;28;20042;-65
2023/09/23 05:42:47;;;;;;;5.10;2.28;;;10.80;99.90;;;;;;4970101;28;20054;-65
2023/09/23 05:45:15;;;;;;;5.25;2.17;;;10.90;99.90;;;;;;4970373;28;20050;-64
2023/09/23 05:47:41;;;;;;;3.42;2.17;;;10.90;99.90;;;;;;4951341;28;20043;-64
2023/09/23 05:50:09;;;;;;;5.57;2.47;;;11.00;99.90;;;;;;4977703;28;20073;-65
2023/09/23 05:52:36;;;;;;;4.53;2.40;;;11.00;99.90;;;;;;4970122;28;20046;-65
2023/09/23 05:55:05;;;;;;;9.02;2.25;;;11.00;99.90;;;;;;4954699;28;20038;-65
2023/09/23 05:57:34;;;;;;;6.28;3.45;;;11.10;99.90;;;;;;4969940;28;20092;-65
2023/09/23 06:00:00;;;;;;;5.55;3.15;;;11.10;99.90;;;;;;4970428;28;20042;-64
2023/09/23 06:02:26;;;;;;;5.95;3.10;;;11.10;99.90;;;;;;4970526;28;20039;-64
2023/09/23 06:04:54;;;;;;;6.15;2.45;;;11.10;99.90;;;;;;4969747;28;20445;-65
2023/09/23 06:07:19;;;;;;;8.13;3.72;;;11.20;99.90;;;;;;4954270;28;20054;-65
2023/09/23 06:09:45;;;;;;;7.22;3.75;;;11.20;99.90;;;;;;4969775;28;20038;-65
2023/09/23 06:12:11;;;;;;;6.63;2.67;;;11.20;99.90;;;;;;4970214;28;20397;-65
2023/09/23 06:14:37;;;;;;;7.13;3.13;;;11.20;99.90;;;;;;4970341;28;20475;-65
2023/09/23 06:17:02;;;;;;;7.32;2.70;;;11.20;99.90;;;;;;4987194;28;20074;-64
2023/09/23 06:19:28;;;;;;;6.78;3.33;;;11.20;99.90;;;;;;4970442;28;20047;-64
2023/09/23 06:21:54;;;;;;;4.22;2.53;;;11.20;99.90;;;;;;4970274;28;20456;-64
2023/09/23 06:24:20;;;;;;;6.78;3.05;;;11.30;99.90;;;;;;4953292;28;20391;-65
2023/09/23 06:26:46;;;;;;;5.57;2.85;;;11.40;99.90;;;;;;4969770;28;20064;-65
2023/09/23 06:29:14;;;;;;;7.78;3.47;;;11.50;99.90;;;;;;4972324;28;20042;-65
2023/09/23 06:31:41;;;;;;;7.38;3.42;;;11.60;99.90;;;;;;4972319;28;20043;-65
2023/09/23 06:34:06;;;;;;;5.53;3.10;;;11.70;99.90;;;;;;4973255;28;20043;-65
2023/09/23 06:36:33;;;;;;;9.23;3.58;;;11.90;99.90;;;;;;4972441;28;20516;-65
2023/09/23 06:38:59;;;;;;;6.35;3.17;;;12.00;99.90;;;;;;4972632;28;20391;-65
2023/09/23 06:41:25;;;;;;;7.28;3.25;;;12.20;99.90;;;;;;4973169;28;20133;-64
2023/09/23 06:43:52;;;;;;;4.07;2.75;;;12.30;99.90;;;;;;4973201;28;20125;-65
2023/09/23 06:46:18;;;;;;;9.93;3.78;;;12.40;99.90;;;;;;4973006;28;20427;-65
2023/09/23 06:48:44;;;;;;;9.10;3.83;;;12.40;99.90;;;;;;4990417;28;20054;-65
2023/09/23 06:51:10;;;;;;;7.22;3.55;;;12.50;99.90;;;;;;4990244;28;20042;-65
2023/09/23 06:53:36;;;;;;;5.15;3.03;;;12.50;99.90;;;;;;4956070;28;20494;-64
2023/09/23 06:56:02;;;;;;;6.45;3.63;;;12.50;99.90;;;;;;4956936;28;20091;-64
2023/09/23 06:58:27;;;;;;;5.70;2.78;;;12.50;99.90;;;;;;4972883;28;20126;-64
2023/09/23 07:00:54;;;;;;;8.43;3.50;;;12.50;99.90;;;;;;4972147;28;20055;-64
2023/09/23 07:03:20;;;;;;;6.80;3.38;;;12.50;99.90;;;;;;4973142;28;20116;-64
2023/09/23 07:05:45;;;;;;;5.70;2.90;;;12.60;99.90;;;;;;4972413;28;20518;-64
2023/09/23 07:08:12;;;;;;;7.07;4.13;;;12.70;99.90;;;;;;4990142;28;20049;-64
2023/09/23 07:10:39;;;;;;;5.25;3.30;;;12.70;99.90;;;;;;4990262;28;20405;-64
2023/09/23 07:13:06;;;;;;;8.25;3.67;;;12.80;99.90;;;;;;4972027;28;20041;-64
2023/09/23 07:15:36;;;;;;;5.75;3.03;;;12.90;99.90;;;;;;4990135;28;20047;-64
2023/09/23 07:18:03;;;;;;;6.72;2.88;;;13.10;99.90;;;;;;4972580;28;20077;-64
2023/09/23 07:20:29;;;;;;;6.63;3.33;;;13.20;99.90;;;;;;4971892;28;20050;-64
2023/09/23 07:22:55;;;;;;;7.75;3.25;;;13.20;99.90;;;;;;4972416;28;20116;-64
2023/09/23 07:25:20;;;;;;;9.63;3.08;;;13.30;99.90;;;;;;4965400;28;20055;-64
2023/09/23 07:27:47;;;;;;;5.15;2.60;;;13.30;99.90;;;;;;5067283;28;20115;-64
2023/09/23 07:30:13;;;;;;;6.22;3.25;;;13.30;99.90;;;;;;5072086;28;20040;-64
2023/09/23 07:32:38;;;;;;;6.07;2.55;;;13.40;99.90;;;;;;5053968;28;20049;-65
2023/09/23 07:35:05;;;;;;;7.80;3.20;;;13.50;99.90;;;;;;5053426;28;20094;-64
2023/09/23 07:37:30;;;;;;;6.95;2.72;;;13.60;99.90;;;;;;5071464;28;20444;-64
2023/09/23 07:39:56;;;;;;;8.02;3.65;;;13.60;99.90;;;;;;5052054;28;20040;-64
2023/09/23 07:42:22;;;;;;;9.13;2.53;;;13.70;99.90;;;;;;5053353;28;20101;-64
2023/09/23 07:44:48;;;;;;;8.32;2.88;;;13.70;99.90;;;;;;5071899;28;20091;-64
2023/09/23 07:47:13;;;;;;;6.15;2.47;;;13.90;99.90;;;;;;5053930;28;20053;-64
2023/09/23 07:49:39;;;;;;;4.78;2.28;;;14.10;99.90;;;;;;5071007;28;20052;-64
2023/09/23 07:52:06;;;;;;;5.18;2.10;;;14.30;99.90;;;;;;5071434;28;20555;-64
2023/09/23 07:54:32;;;;;;;7.18;2.70;;;14.40;99.90;;;;;;5053397;28;20047;-64
2023/09/23 07:56:58;;;;;;;4.72;2.25;;;14.50;99.90;;;;;;5053463;28;20044;-64
2023/09/23 07:59:24;;;;;;;4.03;2.08;;;14.60;99.90;;;;;;5071567;28;20420;-64
2023/09/23 08:01:50;;;;;;;3.67;1.60;;;14.70;99.90;;;;;;5071006;28;20037;-63
2023/09/23 08:04:16;;;;;;;4.35;1.80;;;14.90;99.90;;;;;;5053581;28;20044;-64
2023/09/23 08:06:41;;;;;;;4.78;1.85;;;15.00;99.90;;;;;;5053354;28;20044;-64
2023/09/23 08:09:09;;;;;;;5.25;2.13;;;15.20;99.90;;;;;;5052822;28;20088;-63
2023/09/23 08:11:35;;;;;;;2.58;1.38;;;15.50;99.90;;;;;;5053192;28;20514;-63
2023/09/23 08:14:01;;;;;;;4.07;1.73;;;15.90;99.90;;;;;;5053408;28;20124;-59
2023/09/23 08:16:26;;;;;;;3.03;1.58;;;16.30;99.90;;;;;;5036346;28;20040;-59
2023/09/23 08:18:52;;;;;;;1.65;1.02;;;16.80;99.90;;;;;;5052120;28;20594;-59
2023/09/23 08:21:18;;;;;;;1.70;0.90;;;17.20;99.90;;;;;;5053134;28;20481;-60
2023/09/23 08:23:44;;;;;;;3.45;1.35;;;17.50;99.90;;;;;;5052597;28;20051;-60
2023/09/23 08:26:10;;;;;;;3.25;1.65;;;17.70;99.90;;;;;;5013165;28;20402;-60
2023/09/23 08:28:36;;;;;;;2.80;1.27;;;18.10;99.90;;;;;;4971341;28;20054;-59
2023/09/23 08:31:02;;;;;;;3.63;1.88;;;18.50;99.90;;;;;;4988295;28;20129;-59
2023/09/23 08:33:28;;;;;;;3.95;1.45;;;18.90;99.90;;;;;;4971248;28;20133;-59
2023/09/23 08:35:54;;;;;;;2.95;1.00;;;19.20;99.90;;;;;;4971364;28;20156;-59
2023/09/23 08:38:22;;;;;;;3.17;1.38;;;19.70;99.90;;;;;;4970805;28;20042;-59
2023/09/23 08:40:52;;;;;;;4.57;1.30;;;20.00;99.90;;;;;;4970860;28;20046;-59
2023/09/23 08:43:36;;;;;;;3.25;1.52;;;20.20;99.90;;;;;;4970731;28;20057;-59
2023/09/23 08:46:07;;;;;;;2.22;1.05;;;20.30;99.90;;;;;;4988831;28;20038;-59
2023/09/23 08:48:34;;;;;;;1.58;0.82;;;20.00;99.90;;;;;;4971021;28;20050;-59
2023/09/23 08:51:02;;;;;;;4.28;1.38;;;19.80;99.90;;;;;;4969288;28;20038;-60
2023/09/23 08:53:32;;;;;;;2.80;1.27;;;19.90;99.90;;;;;;4969959;28;20047;-59
2023/09/23 08:55:59;;;;;;;2.50;1.10;;;20.10;99.90;;;;;;4970588;28;20049;-60
2023/09/23 08:58:25;;;;;;;4.00;1.30;;;20.30;99.90;;;;;;4970644;28;20042;-60
2023/09/23 09:00:53;;;;;;;2.00;1.17;;;20.40;99.90;;;;;;4967283;28;20043;-60
2023/09/23 09:03:18;;;;;;;2.20;1.30;;;20.60;99.90;;;;;;4988272;28;20484;-60
2023/09/23 09:05:46;;;;;;;3.78;1.20;;;21.20;99.90;;;;;;4969851;28;20075;-59
2023/09/23 09:08:12;;;;;;;1.73;0.90;;;21.60;99.90;;;;;;4954645;28;20050;-60
2023/09/23 09:10:40;;;;;;;2.17;1.38;;;21.00;99.90;;;;;;4970322;28;20050;-60
2023/09/23 09:13:07;;;;;;;3.28;1.70;;;20.40;99.90;;;;;;4968738;28;20126;-59
2023/09/23 09:15:37;;;;;;;2.63;1.05;;;20.50;99.90;;;;;;4987595;28;20103;-59
2023/09/23 09:18:04;;;;;;;3.90;1.70;;;20.10;99.90;;;;;;4969982;28;20118;-59
2023/09/23 09:20:31;;;;;;;2.25;1.00;;;19.50;99.90;;;;;;4969614;28;20049;-60
2023/09/23 09:22:57;;;;;;;2.20;1.40;;;18.90;99.90;;;;;;4954114;28;20100;-59
2023/09/23 09:25:23;;;;;;;3.97;1.20;;;18.40;99.90;;;;;;4987421;28;20058;-59
2023/09/23 09:27:53;;;;;;;2.45;1.20;;;18.40;99.90;;;;;;4969703;28;20100;-59
2023/09/23 09:30:19;;;;;;;1.08;0.82;;;18.40;99.90;;;;;;4970581;28;20069;-60
2023/09/23 09:32:47;;;;;;;1.92;0.95;;;18.80;99.90;;;;;;4970244;28;20830;-59
2023/09/23 09:35:15;;;;;;;2.80;1.30;;;19.00;99.90;;;;;;4970740;28;20047;-59
2023/09/23 09:37:46;;;;;;;1.83;1.20;;;19.10;99.90;;;;;;4970447;28;20038;-60
2023/09/23 09:40:21;;;;;;;1.15;0.90;;;18.80;99.90;;;;;;4969990;28;20044;-59
2023/09/23 09:42:54;;;;;;;2.28;1.45;;;18.60;99.90;;;;;;4970573;28;20046;-59
2023/09/23 09:45:24;;;;;;;2.80;1.20;;;18.50;99.90;;;;;;4953564;28;20184;-59
2023/09/23 09:47:53;;;;;;;2.38;1.15;;;18.40;99.90;;;;;;4956540;28;20099;-59
2023/09/23 09:50:22;;;;;;;2.50;0.95;;;18.30;99.90;;;;;;5029238;28;20071;-60
2023/09/23 09:52:48;;;;;;;2.78;1.02;;;18.40;99.90;;;;;;5059700;28;20044;-60
2023/09/23 09:55:17;;;;;;;4.15;1.27;;;18.70;99.90;;;;;;4969972;28;20039;-60
2023/09/23 09:57:43;;;;;;;3.08;1.02;;;19.40;99.90;;;;;;4970424;28;20046;-60
2023/09/23 10:00:15;;;;;;;2.10;1.20;;;19.60;99.90;;;;;;4970638;28;20417;-60
2023/09/23 10:02:43;;;;;;;1.80;1.17;;;19.60;99.90;;;;;;4970414;28;20104;-60
2023/09/23 10:05:17;;;;;;;3.80;1.50;;;20.00;99.90;;;;;;4973793;28;20054;-60
2023/09/23 10:07:55;;;;;;;1.42;0.88;;;20.70;99.90;;;;;;4973238;28;20543;-60
2023/09/23 10:10:34;;;;;;;1.65;1.23;;;21.30;99.90;;;;;;4974139;28;20073;-60
2023/09/23 10:13:18;;;;;;;3.95;0.80;;;22.00;99.90;;;;;;4973040;28;20050;-60
2023/09/23 10:15:44;;;;;;;1.00;0.43;;;22.60;99.90;;;;;;4972134;28;20046;-60
2023/09/23 10:18:20;;;;;;;1.02;0.52;;;22.90;99.90;;;;;;4972476;28;20379;-60
2023/09/23 10:20:49;;;;;;;2.15;0.60;;;23.30;99.90;;;;;;4971281;28;20053;-60
2023/09/23 10:23:17;;;;;;;1.27;0.60;;;23.60;99.90;;;;;;4972373;28;20069;-61
2023/09/23 10:25:51;;;;;;;2.13;0.60;;;23.80;99.90;;;;;;4999542;28;20068;-60
2023/09/23 10:28:24;;;;;;;0.98;0.32;;;23.80;99.90;;;;;;4974205;28;20047;-61
2023/09/23 10:30:59;;;;;;;0.70;0.35;;;24.00;99.90;;;;;;4989151;28;20074;-60
2023/09/23 10:33:26;;;;;;;1.65;0.45;;;23.40;99.90;;;;;;4989512;28;20057;-60
2023/09/23 10:35:53;;;;;;;0.20;0.20;;;22.80;99.90;;;;;;4989330;28;20379;-60
2023/09/23 10:38:31;;;;;;;1.48;0.50;;;22.40;99.90;;;;;;4972711;28;20645;-60
2023/09/23 10:40:57;;;;;;;1.65;0.68;;;21.90;99.90;;;;;;5003227;28;20050;-60
2023/09/23 10:43:23;;;;;;;1.15;0.60;;;21.80;99.90;;;;;;4971842;28;20062;-60
2023/09/23 10:45:53;;;;;;;0.70;0.40;;;22.10;99.90;;;;;;4972034;28;20441;-60
2023/09/23 10:48:18;;;;;;;;;;;22.20;99.90;;;;;;4971755;28;20092;-60
2023/09/23 10:50:44;;;;;;;0.57;0.30;;;22.10;99.90;;;;;;5066472;28;19957;-60
2023/09/23 10:53:11;;;;;;;0.90;0.45;;;21.70;99.90;;;;;;5091795;28;20158;-60
2023/09/23 10:55:39;;;;;;;1.20;0.40;;;21.50;99.90;;;;;;5074114;28;20051;-60
2023/09/23 10:58:06;;;;;;;0.43;0.40;;;21.00;99.90;;;;;;5073319;28;20047;-60
2023/09/23 11:00:36;;;;;;;0.38;0.22;;;20.50;99.90;;;;;;5073946;28;20048;-60
2023/09/23 11:03:12;;;;;;;1.05;0.30;;;20.10;99.90;;;;;;5091954;28;20496;-59
2023/09/23 11:05:39;;;;;;;1.42;0.25;;;19.80;99.90;;;;;;5072902;28;20052;-60
2023/09/23 11:08:12;;;;;;;1.63;0.22;;;20.00;99.90;;;;;;5062161;28;20368;-60
2023/09/23 11:10:40;;;;;;;1.33;0.60;;;20.60;99.90;;;;;;4971219;28;20089;-60
2023/09/23 11:13:06;;;;;;;1.63;0.47;;;21.10;99.90;;;;;;4971371;28;20084;-60
2023/09/23 11:15:32;;;;;;;0.45;0.22;;;21.40;99.90;;;;;;4989050;28;20038;-60
2023/09/23 11:17:58;;;;;;;0.50;0.28;;;21.70;99.90;;;;;;4988760;28;20505;-60
2023/09/23 11:20:32;;;;;;;0.50;0.20;;;21.70;99.90;;;;;;4971952;28;20046;-60
2023/09/23 11:23:00;;;;;;;0.10;0.10;;;21.30;99.90;;;;;;4989329;28;20452;-60
2023/09/23 11:25:26;;;;;;;1.20;0.40;;;20.80;99.90;;;;;;4963168;28;20063;-60
2023/09/23 11:27:52;;;;;;;2.92;0.32;;;20.40;99.90;;;;;;5036445;28;20051;-60
2023/09/23 11:30:18;;;;;;;0.88;0.32;;;20.10;99.90;;;;;;5053290;28;20059;-60
2023/09/23 11:32:50;;;;;;;5.22;0.47;;;20.00;99.90;;;;;;5052433;28;20126;-60
2023/09/23 11:35:16;;;;;;;0.57;0.32;;;20.10;99.90;;;;;;5053162;28;20044;-60
2023/09/23 11:37:42;;;;;;;3.33;0.40;;;20.40;99.90;;;;;;5053112;28;20036;-60
2023/09/23 11:40:09;;;;;;;2.53;0.20;;;20.80;99.90;;;;;;5052483;28;20041;-60
2023/09/23 11:42:34;;;;;;;2.72;0.40;;;21.00;99.90;;;;;;5070986;28;20051;-60
2023/09/23 11:45:00;;;;;;;0.10;0.10;;;21.00;99.90;;;;;;5053083;28;20669;-61
2023/09/23 11:47:26;;;;;;;0.65;0.20;;;21.20;99.90;;;;;;5070280;28;20512;-60
2023/09/23 11:49:51;;;;;;;0.80;0.32;;;21.20;99.90;;;;;;5035586;28;20044;-61
2023/09/23 11:52:17;;;;;;;0.60;0.20;;;21.20;99.90;;;;;;5052449;28;20523;-60
2023/09/23 11:54:44;;;;;;;0.43;0.25;;;21.50;99.90;;;;;;5051983;28;20150;-60
2023/09/23 11:57:09;;;;;;;0.73;0.22;;;21.80;99.90;;;;;;5052657;28;20182;-60
2023/09/23 11:59:36;;;;;;;1.40;0.30;;;21.80;99.90;;;;;;5035657;28;20111;-60
2023/09/23 12:02:02;;;;;;;0.38;0.30;;;21.70;99.90;;;;;;5043517;28;20041;-60
2023/09/23 12:04:28;;;;;;;0.57;0.20;;;21.50;99.90;;;;;;5064791;28;20048;-60
2023/09/23 12:06:53;;;;;;;0.20;0.10;;;21.40;99.90;;;;;;5049884;28;20568;-60
2023/09/23 12:09:19;;;;;;;0.20;0.20;;;21.30;99.90;;;;;;5068689;28;20047;-60
2023/09/23 12:11:45;;;;;;;0.40;0.20;;;21.10;99.90;;;;;;5052372;28;20044;-60
2023/09/23 12:14:12;;;;;;;0.25;0.17;;;21.10;99.90;;;;;;5052572;28;20041;-60
2023/09/23 12:16:37;;;;;;;1.33;0.20;;;20.90;99.90;;;;;;5052949;28;20094;-60
2023/09/23 12:19:03;;;;;;;1.95;0.50;;;20.60;99.90;;;;;;5037895;28;20041;-60
2023/09/23 12:21:30;;;;;;;1.88;0.38;;;20.40;99.90;;;;;;5069125;28;20111;-60
2023/09/23 12:23:59;;;;;;;0.75;0.20;;;20.10;99.90;;;;;;5071012;28;20040;-60
2023/09/23 12:26:28;;;;;;;0.47;0.45;;;19.70;99.90;;;;;;4986950;28;20062;-60
2023/09/23 12:28:55;;;;;;;0.10;0.10;;;19.50;99.90;;;;;;4971580;28;20045;-59
2023/09/23 12:31:23;;;;;;;1.85;0.40;;;19.40;99.90;;;;;;4988841;28;20053;-60
2023/09/23 12:33:53;;;;;;;0.73;0.20;;;19.20;99.90;;;;;;4987205;28;20047;-60
2023/09/23 12:36:19;;;;;;;5.88;0.52;;;19.20;99.90;;;;;;4970841;28;20057;-60
2023/09/23 12:38:47;;;;;;;0.55;0.30;;;19.40;99.90;;;;;;4975206;28;20042;-60
2023/09/23 12:41:14;;;;;;;0.70;0.43;;;19.70;99.90;;;;;;5022899;28;20646;-60
2023/09/23 12:43:40;;;;;;;0.68;0.40;;;19.90;99.90;;;;;;5005779;28;20070;-60
2023/09/23 12:46:06;;;;;;;0.35;0.17;;;20.00;99.90;;;;;;4995287;28;20099;-60
2023/09/23 12:48:32;;;;;;;1.30;0.20;;;20.10;99.90;;;;;;5022621;28;20049;-60
2023/09/23 12:50:58;;;;;;;1.25;0.40;;;20.30;99.90;;;;;;5036448;28;21195;-60
2023/09/23 12:53:25;;;;;;;1.45;0.47;;;20.50;99.90;;;;;;5061718;28;20044;-60